Time;durP1;ratioP1;P1;durP2;ratioP2;P2;SDS_P1;SDS_P2;PMS_P1;PMS_P2;Temp;Humidity;BMP_temperature;BMP_pressure;BME280_temperature;BME280_humidity;BME280_pressure;Samples;Min_cycle;Max_cycle;Signal;HPM_P1;HPM_P2
2023/03/19 00:00:50;;;;;;;;;;;;;;;4.83;69.03;101469.73;108378;1256;71501;-67
2023/03/19 00:03:20;;;;;;;;;;;;;;;4.88;68.97;101466.08;108396;1253;61047;-66
2023/03/19 00:05:50;;;;;;;;;;;;;;;4.94;69.06;101463.09;108374;1252;60380;-66
2023/03/19 00:08:19;;;;;;;;;;;;;;;5.00;69.09;101463.52;108373;1254;73355;-65
2023/03/19 00:10:49;;;;;;;;;;;;;;;5.05;68.96;101457.10;108387;1254;71888;-65
2023/03/19 00:13:17;;;;;;;;;;;;;;;5.08;68.89;101455.29;108418;1252;73835;-65
2023/03/19 00:15:50;;;;;;;;;;;;;;;5.09;68.77;101454.19;108387;1253;60634;-65
2023/03/19 00:18:21;;;;;;;;;;;;;;;5.06;68.55;101448.80;108355;1252;61271;-65
2023/03/19 00:20:50;;;;;;;;;;;;;;;5.01;68.29;101444.02;108340;1254;73395;-65
2023/03/19 00:23:19;;;;;;;;;;;;;;;4.96;68.18;101442.20;108395;1254;72164;-65
2023/03/19 00:25:48;;;;;;;;;;;;;;;4.94;68.20;101435.65;108397;1253;72904;-65
2023/03/19 00:28:17;;;;;;;;;;;;;;;4.92;68.21;101428.79;108350;1253;62109;-65
2023/03/19 00:30:45;;;;;;;;;;;;;;;4.91;68.01;101426.19;108219;1253;61757;-66
2023/03/19 00:33:14;;;;;;;;;;;;;;;4.84;67.75;101426.59;108405;1254;73471;-66
2023/03/19 00:35:42;;;;;;;;;;;;;;;4.74;67.57;101420.44;108368;1254;72632;-65
2023/03/19 00:38:12;;;;;;;;;;;;;;;4.62;67.44;101418.52;108221;1253;72112;-64
2023/03/19 00:40:42;;;;;;;;;;;;;;;4.51;67.47;101417.62;108338;1252;60576;-65
2023/03/19 00:43:11;;;;;;;;;;;;;;;4.41;67.39;101412.98;108366;1254;60428;-64
2023/03/19 00:45:42;;;;;;;;;;;;;;;4.33;67.41;101414.61;108424;1254;73752;-67
2023/03/19 00:48:11;;;;;;;;;;;;;;;4.25;67.45;101418.56;108390;1254;72591;-65
2023/03/19 00:50:40;;;;;;;;;;;;;;;4.18;67.42;101418.96;108386;1253;72255;-65
2023/03/19 00:53:10;;;;;;;;;;;;;;;4.10;67.40;101418.58;108530;1254;61384;-65
2023/03/19 00:55:38;;;;;;;;;;;;;;;4.01;67.52;101416.56;108429;1253;60251;-65
2023/03/19 00:58:10;;;;;;;;;;;;;;;3.90;67.55;101415.91;108384;1254;72784;-66
2023/03/19 01:00:40;;;;;;;;;;;;;;;3.80;67.72;101416.64;108288;1254;71670;-65
2023/03/19 01:03:10;;;;;;;;;;;;;;;3.71;67.85;101412.11;108381;1253;72281;-65
2023/03/19 01:05:38;;;;;;;;;;;;;;;3.66;67.94;101414.86;108378;1254;60386;-65
2023/03/19 01:08:07;;;;;;;;;;;;;;;3.63;68.24;101414.71;108426;1254;60447;-66
2023/03/19 01:10:36;;;;;;;;;;;;;;;3.61;68.29;101411.96;108226;1253;75053;-65
2023/03/19 01:13:05;;;;;;;;;;;;;;;3.59;68.42;101419.89;108413;1254;73513;-65
2023/03/19 01:15:40;;;;;;;;;;;;;;;3.55;68.50;101420.77;108213;1258;72448;-65
2023/03/19 01:18:09;;;;;;;;;;;;;;;3.49;68.51;101417.92;108366;1253;61628;-65
2023/03/19 01:20:38;;;;;;;;;;;;;;;3.44;68.32;101416.36;108184;1253;60447;-65
2023/03/19 01:23:07;;;;;;;;;;;;;;;3.39;68.25;101415.52;108384;1253;73520;-65
2023/03/19 01:25:35;;;;;;;;;;;;;;;3.34;68.29;101418.27;108329;1253;73057;-65
2023/03/19 01:28:06;;;;;;;;;;;;;;;3.29;68.36;101420.11;108187;1253;72227;-65
2023/03/19 01:30:39;;;;;;;;;;;;;;;3.24;68.54;101418.11;108368;1252;61572;-65
2023/03/19 01:33:24;;;;;;;;;;;;;;;3.17;68.58;101418.21;108396;1252;60306;-64
2023/03/19 01:36:01;;;;;;;;;;;;;;;3.10;68.54;101414.46;108349;1256;73848;-64
2023/03/19 01:38:37;;;;;;;;;;;;;;;3.04;68.60;101411.36;108250;1253;73981;-64
2023/03/19 01:41:09;;;;;;;;;;;;;;;2.97;68.48;101412.88;108337;1256;73061;-63
2023/03/19 01:43:39;;;;;;;;;;;;;;;2.92;68.47;101413.98;108372;1254;62264;-64
2023/03/19 01:46:33;;;;;;;;;;;;;;;2.88;68.71;101416.26;108391;1256;60408;-64
2023/03/19 01:49:23;;;;;;;;;;;;;;;2.84;68.80;101417.88;108399;1253;73466;-63
2023/03/19 01:52:00;;;;;;;;;;;;;;;2.79;68.73;101419.71;108389;1253;72656;-64
2023/03/19 01:54:36;;;;;;;;;;;;;;;2.76;68.96;101424.46;108366;1254;72877;-64
2023/03/19 01:57:30;;;;;;;;;;;;;;;2.69;68.84;101421.33;108189;1254;59725;-64
2023/03/19 02:00:15;;;;;;;;;;;;;;;2.65;68.90;101423.48;108207;1253;60397;-64
2023/03/19 02:02:46;;;;;;;;;;;;;;;2.59;68.77;101421.21;108366;1254;73510;-65
2023/03/19 02:05:33;;;;;;;;;;;;;;;2.53;68.82;101422.99;108348;1254;71014;-67
2023/03/19 02:08:05;;;;;;;;;;;;;;;2.47;68.72;101424.18;108216;1254;72044;-64
2023/03/19 02:10:35;;;;;;;;;;;;;;;2.42;68.74;101424.14;108266;1256;61193;-65
2023/03/19 02:13:03;;;;;;;;;;;;;;;2.36;68.75;101424.43;108212;1254;61099;-65
2023/03/19 02:15:32;;;;;;;;;;;;;;;2.31;68.91;101427.67;108198;1254;74059;-64
2023/03/19 02:18:01;;;;;;;;;;;;;;;2.24;68.79;101429.73;108286;1254;72200;-63
2023/03/19 02:20:33;;;;;;;;;;;;;;;2.18;68.88;101432.52;108172;1254;71741;-64
2023/03/19 02:23:25;;;;;;;;;;;;;;;2.13;68.67;101435.60;108174;1254;60972;-63
2023/03/19 02:25:56;;;;;;;;;;;;;;;2.05;68.66;101437.88;108199;1253;60325;-64
2023/03/19 02:28:26;;;;;;;;;;;;;;;2.01;68.79;101442.23;108289;1253;74834;-64
2023/03/19 02:30:55;;;;;;;;;;;;;;;1.98;68.74;101448.02;108209;1254;72670;-65
2023/03/19 02:33:24;;;;;;;;;;;;;;;1.85;68.66;101443.73;108243;1253;71405;-64
2023/03/19 02:35:55;;;;;;;;;;;;;;;1.67;69.03;101446.20;108312;1252;60793;-64
2023/03/19 02:38:24;;;;;;;;;;;;;;;1.54;69.17;101448.90;108384;1252;60307;-64
2023/03/19 02:40:58;;;;;;;;;;;;;;;1.43;69.27;101448.26;108393;1254;72553;-64
2023/03/19 02:43:28;;;;;;;;;;;;;;;1.35;69.56;101449.29;108230;1254;70938;-64
2023/03/19 02:45:57;;;;;;;;;;;;;;;1.27;69.85;101450.58;108190;1254;74371;-64
2023/03/19 02:48:27;;;;;;;;;;;;;;;1.20;69.88;101454.70;108220;1252;62455;-64
2023/03/19 02:50:55;;;;;;;;;;;;;;;1.16;70.13;101457.76;108414;1256;60501;-64
2023/03/19 02:53:26;;;;;;;;;;;;;;;1.15;70.44;101459.23;108427;1253;74893;-64
2023/03/19 02:55:56;;;;;;;;;;;;;;;1.14;70.62;101456.45;108387;1253;72518;-64
2023/03/19 02:58:26;;;;;;;;;;;;;;;1.13;70.73;101458.75;108387;1253;73600;-64
2023/03/19 03:01:09;;;;;;;;;;;;;;;1.14;71.16;101460.95;108314;1254;59630;-63
2023/03/19 03:03:52;;;;;;;;;;;;;;;1.19;71.37;101460.67;108206;1253;59890;-64
2023/03/19 03:06:24;;;;;;;;;;;;;;;1.24;71.38;101463.17;108387;1252;73331;-64
2023/03/19 03:08:53;;;;;;;;;;;;;;;1.30;71.64;101464.69;108345;1254;73136;-64
2023/03/19 03:11:21;;;;;;;;;;;;;;;1.35;71.63;101464.27;108290;1252;71793;-64
2023/03/19 03:13:56;;;;;;;;;;;;;;;1.39;71.84;101463.20;108196;1254;61259;-64
2023/03/19 03:16:26;;;;;;;;;;;;;;;1.45;72.03;101463.80;108278;1253;60405;-64
2023/03/19 03:18:55;;;;;;;;;;;;;;;1.52;72.20;101464.19;108314;1254;72403;-65
2023/03/19 03:21:25;;;;;;;;;;;;;;;1.61;72.20;101462.48;108328;1254;73828;-67
2023/03/19 03:23:53;;;;;;;;;;;;;;;1.71;72.32;101462.47;108374;1254;70959;-66
2023/03/19 03:26:21;;;;;;;;;;;;;;;1.82;72.51;101459.23;108385;1253;60259;-64
2023/03/19 03:28:51;;;;;;;;;;;;;;;1.88;72.44;101454.79;108409;1254;60350;-64
2023/03/19 03:31:20;;;;;;;;;;;;;;;1.94;72.60;101456.63;108400;1253;74891;-64
2023/03/19 03:33:51;;;;;;;;;;;;;;;1.97;72.64;101459.27;108403;1253;73613;-65
2023/03/19 03:36:20;;;;;;;;;;;;;;;2.00;72.69;101461.11;108400;1256;73444;-64
2023/03/19 03:38:49;;;;;;;;;;;;;;;2.03;72.57;101460.59;108399;1253;62195;-63
2023/03/19 03:41:17;;;;;;;;;;;;;;;2.07;72.75;101463.69;108300;1253;60200;-63
2023/03/19 03:43:46;;;;;;;;;;;;;;;2.09;72.73;101462.75;108424;1256;74827;-66
2023/03/19 03:46:16;;;;;;;;;;;;;;;2.13;72.83;101466.54;108390;1253;73294;-66
2023/03/19 03:48:50;;;;;;;;;;;;;;;2.16;72.92;101465.61;108402;1253;72941;-64
2023/03/19 03:51:18;;;;;;;;;;;;;;;2.18;72.77;101466.27;108419;1253;62254;-64
2023/03/19 03:53:48;;;;;;;;;;;;;;;2.22;72.98;101463.48;108418;1252;60328;-64
2023/03/19 03:56:16;;;;;;;;;;;;;;;2.31;73.00;101462.80;108442;1256;75072;-64
2023/03/19 03:58:44;;;;;;;;;;;;;;;2.39;72.95;101458.61;108515;1254;73874;-65
2023/03/19 04:01:14;;;;;;;;;;;;;;;2.41;72.78;101456.35;108186;1253;72819;-64
2023/03/19 04:03:43;;;;;;;;;;;;;;;2.43;72.69;101456.20;108182;1253;60461;-64
2023/03/19 04:06:15;;;;;;;;;;;;;;;2.46;72.53;101453.35;108319;1253;60325;-64
2023/03/19 04:08:44;;;;;;;;;;;;;;;2.47;72.56;101451.47;108292;1253;74909;-64
2023/03/19 04:11:13;;;;;;;;;;;;;;;2.51;72.75;101451.25;108311;1253;72030;-63
2023/03/19 04:13:42;;;;;;;;;;;;;;;2.56;72.49;101452.77;108365;1252;72602;-63
2023/03/19 04:16:11;;;;;;;;;;;;;;;2.61;72.65;101452.08;108365;1254;60528;-64
2023/03/19 04:18:39;;;;;;;;;;;;;;;2.65;72.43;101450.34;108201;1254;60329;-64
2023/03/19 04:21:13;;;;;;;;;;;;;;;2.72;72.60;101449.73;108300;1254;73011;-64
2023/03/19 04:23:42;;;;;;;;;;;;;;;2.79;72.62;101452.23;108376;1254;74022;-64
2023/03/19 04:26:11;;;;;;;;;;;;;;;2.86;72.38;101449.27;108189;1254;72625;-64
2023/03/19 04:28:41;;;;;;;;;;;;;;;2.96;72.54;101453.16;108384;1253;60607;-64
2023/03/19 04:31:11;;;;;;;;;;;;;;;3.06;72.61;101448.13;108386;1253;60510;-65
2023/03/19 04:33:44;;;;;;;;;;;;;;;3.22;72.59;101446.49;108427;1254;75105;-65
2023/03/19 04:36:12;;;;;;;;;;;;;;;3.34;72.48;101444.14;108498;1254;73452;-64
2023/03/19 04:38:41;;;;;;;;;;;;;;;3.44;72.37;101441.76;108207;1256;73918;-65
2023/03/19 04:41:10;;;;;;;;;;;;;;;3.53;72.34;101443.04;108428;1253;61089;-65
2023/03/19 04:43:42;;;;;;;;;;;;;;;3.60;72.23;101440.94;108422;1253;61312;-65
2023/03/19 04:46:10;;;;;;;;;;;;;;;3.64;72.05;101439.75;108283;1253;73568;-65
2023/03/19 04:48:40;;;;;;;;;;;;;;;3.67;72.00;101440.27;108389;1253;72596;-64
2023/03/19 04:51:08;;;;;;;;;;;;;;;3.72;71.88;101443.36;108398;1254;73043;-64
2023/03/19 04:53:41;;;;;;;;;;;;;;;3.77;72.05;101440.52;108365;1253;60320;-65
2023/03/19 04:56:10;;;;;;;;;;;;;;;3.81;71.96;101439.95;108379;1254;61390;-64
2023/03/19 04:58:38;;;;;;;;;;;;;;;3.89;71.93;101439.00;108227;1254;73677;-65
2023/03/19 05:01:08;;;;;;;;;;;;;;;3.99;71.92;101438.27;108360;1254;73930;-64
2023/03/19 05:03:58;;;;;;;;;;;;;;;4.09;71.79;101441.44;108362;1253;72980;-64
2023/03/19 05:06:31;;;;;;;;;;;;;;;4.15;71.54;101440.10;108217;1254;61343;-65
2023/03/19 05:09:00;;;;;;;;;;;;;;;4.16;71.39;101437.41;108226;1252;59342;-65
2023/03/19 05:11:28;;;;;;;;;;;;;;;4.19;71.37;101439.22;108215;1252;73031;-64
2023/03/19 05:14:02;;;;;;;;;;;;;;;4.25;71.37;101438.13;108409;1252;72841;-64
2023/03/19 05:16:37;;;;;;;;;;;;;;;4.32;71.27;101438.86;108189;1254;73990;-64
2023/03/19 05:19:07;;;;;;;;;;;;;;;4.40;71.22;101432.52;108407;1253;60966;-65
2023/03/19 05:21:39;;;;;;;;;;;;;;;4.50;71.12;101434.34;108377;1254;60537;-64
2023/03/19 05:24:08;;;;;;;;;;;;;;;4.58;71.03;101434.98;108271;1253;73815;-65
2023/03/19 05:26:41;;;;;;;;;;;;;;;4.65;70.92;101433.10;108417;1253;73004;-65
2023/03/19 05:29:26;;;;;;;;;;;;;;;4.71;70.78;101424.54;108433;1255;73451;-65
2023/03/19 05:32:22;;;;;;;;;;;;;;;4.81;70.71;101424.52;108087;1252;61380;-65
2023/03/19 05:34:50;;;;;;;;;;;;;;;4.89;70.58;101423.81;108392;1253;61114;-64
2023/03/19 05:37:20;;;;;;;;;;;;;;;4.98;70.40;101419.86;108409;1253;73383;-65
2023/03/19 05:39:55;;;;;;;;;;;;;;;5.08;70.24;101418.13;108233;1254;73428;-65
2023/03/19 05:42:24;;;;;;;;;;;;;;;5.18;70.17;101418.08;108394;1252;72349;-65
2023/03/19 05:44:54;;;;;;;;;;;;;;;5.31;70.03;101418.89;108385;1254;61416;-65
2023/03/19 05:47:26;;;;;;;;;;;;;;;5.45;69.82;101417.27;108417;1252;61144;-65
2023/03/19 05:49:56;;;;;;;;;;;;;;;5.55;69.61;101419.81;108403;1253;71897;-66
2023/03/19 05:52:25;;;;;;;;;;;;;;;5.64;69.25;101422.97;108378;1253;70845;-65
2023/03/19 05:54:55;;;;;;;;;;;;;;;5.73;69.22;101424.92;108374;1252;73853;-66
2023/03/19 05:57:39;;;;;;;;;;;;;;;5.86;68.81;101425.70;108464;1253;61071;-65
2023/03/19 06:00:17;;;;;;;;;;;;;;;5.98;68.54;101425.77;108404;1253;60834;-65
2023/03/19 06:02:48;;;;;;;;;;;;;;;6.10;68.22;101430.70;108394;1256;74080;-65
2023/03/19 06:05:20;;;;;;;;;;;;;;;6.19;67.90;101428.73;108428;1253;73425;-65
2023/03/19 06:07:51;;;;;;;;;;;;;;;6.28;67.66;101429.36;108387;1252;74871;-65
2023/03/19 06:10:28;;;;;;;;;;;;;;;6.33;67.22;101426.38;108362;1253;61186;-66
2023/03/19 06:13:00;;;;;;;;;;;;;;;6.41;67.18;101420.48;108211;1254;61154;-65
2023/03/19 06:15:37;;;;;;;;;;;;;;;6.52;66.85;101422.05;108297;1253;75034;-65
2023/03/19 06:18:33;;;;;;;;;;;;;;;6.61;65.90;101425.25;108312;1252;72023;-66
2023/03/19 06:21:06;;;;;;;;;;;;;;;6.63;64.76;101426.27;108301;1252;73860;-67
2023/03/19 06:23:35;;;;;;;;;;;;;;;6.67;64.07;101428.86;108285;1253;60421;-65
2023/03/19 06:26:06;;;;;;;;;;;;;;;6.75;63.61;101431.58;108304;1253;60335;-66
2023/03/19 06:28:55;;;;;;;;;;;;;;;6.82;62.85;101429.95;108341;1253;75380;-66
2023/03/19 06:31:23;;;;;;;;;;;;;;;6.89;62.24;101433.98;108201;1254;72212;-66
2023/03/19 06:33:55;;;;;;;;;;;;;;;6.91;60.68;101432.45;108470;1253;72897;-65
2023/03/19 06:36:29;;;;;;;;;;;;;;;6.87;59.98;101435.20;108400;1253;61737;-65
2023/03/19 06:38:57;;;;;;;;;;;;;;;6.90;59.73;101434.58;108262;1254;60449;-65
2023/03/19 06:41:26;;;;;;;;;;;;;;;6.98;59.47;101434.63;108437;1253;74932;-66
2023/03/19 06:44:00;;;;;;;;;;;;;;;7.09;59.14;101433.71;108234;1253;71278;-66
2023/03/19 06:46:28;;;;;;;;;;;;;;;7.17;58.83;101433.84;108379;1254;73257;-67
2023/03/19 06:48:57;;;;;;;;;;;;;;;7.23;58.56;101432.42;108381;1252;60430;-66
2023/03/19 06:51:27;;;;;;;;;;;;;;;7.29;58.32;101427.44;108389;1253;60450;-66
2023/03/19 06:53:55;;;;;;;;;;;;;;;7.37;58.17;101421.98;108404;1252;74919;-65
2023/03/19 06:56:24;;;;;;;;;;;;;;;7.46;57.81;101423.52;108356;1254;73970;-67
2023/03/19 06:58:55;;;;;;;;;;;;;;;7.54;57.17;101418.72;108388;1253;73082;-66
2023/03/19 07:01:24;;;;;;;;;;;;;;;7.59;56.84;101423.55;108401;1253;60441;-67
2023/03/19 07:03:52;;;;;;;;;;;;;;;7.64;56.42;101421.72;108398;1254;60329;-66
2023/03/19 07:06:22;;;;;;;;;;;;;;;7.61;55.62;101422.36;108374;1254;72886;-67
2023/03/19 07:08:51;;;;;;;;;;;;;;;7.54;55.53;101426.17;108418;1254;73208;-65
2023/03/19 07:11:19;;;;;;;;;;;;;;;7.55;55.39;101428.95;108356;1252;72180;-67
2023/03/19 07:13:50;;;;;;;;;;;;;;;7.57;55.11;101428.64;108386;1253;60434;-66
2023/03/19 07:16:18;;;;;;;;;;;;;;;7.52;54.78;101429.58;108348;1253;61935;-67
2023/03/19 07:18:51;;;;;;;;;;;;;;;7.46;54.74;101429.58;108394;1256;73193;-66
2023/03/19 07:21:20;;;;;;;;;;;;;;;7.44;54.80;101429.52;108393;1253;71443;-66
2023/03/19 07:23:49;;;;;;;;;;;;;;;7.48;54.75;101428.27;108402;1253;73021;-66
2023/03/19 07:26:18;;;;;;;;;;;;;;;7.57;54.79;101432.08;108337;1253;60388;-66
2023/03/19 07:28:47;;;;;;;;;;;;;;;7.75;54.76;101430.36;108400;1254;60327;-66
2023/03/19 07:31:16;;;;;;;;;;;;;;;7.94;54.38;101435.55;108385;1253;72704;-66
2023/03/19 07:33:49;;;;;;;;;;;;;;;8.05;53.73;101432.98;108400;1254;71822;-66
2023/03/19 07:36:17;;;;;;;;;;;;;;;8.15;53.78;101430.46;108355;1252;72981;-67
2023/03/19 07:38:46;;;;;;;;;;;;;;;8.29;52.93;101431.02;108402;1253;60313;-67
2023/03/19 07:41:14;;;;;;;;;;;;;;;8.31;52.68;101430.93;108406;1253;60298;-66
2023/03/19 07:43:43;;;;;;;;;;;;;;;8.43;52.87;101432.66;108392;1254;74694;-66
2023/03/19 07:46:16;;;;;;;;;;;;;;;8.65;52.88;101431.07;108387;1252;73775;-66
2023/03/19 07:48:44;;;;;;;;;;;;;;;8.85;52.30;101427.96;108391;1254;73838;-67
2023/03/19 07:51:13;;;;;;;;;;;;;;;9.01;51.69;101421.63;108364;1254;60359;-67
2023/03/19 07:53:45;;;;;;;;;;;;;;;9.18;51.28;101420.33;108380;1252;61423;-65
2023/03/19 07:56:13;;;;;;;;;;;;;;;9.28;50.03;101415.62;108371;1254;74532;-65
2023/03/19 07:58:42;;;;;;;;;;;;;;;9.23;49.69;101417.67;108406;1254;73514;-67
2023/03/19 08:01:14;;;;;;;;;;;;;;;9.23;49.82;101416.04;108350;1256;73770;-67
2023/03/19 08:03:42;;;;;;;;;;;;;;;9.32;49.92;101417.09;108367;1256;60291;-66
2023/03/19 08:06:11;;;;;;;;;;;;;;;9.42;49.64;101415.52;108376;1254;61980;-67
2023/03/19 08:08:40;;;;;;;;;;;;;;;9.55;49.38;101413.59;108384;1253;73313;-66
2023/03/19 08:11:09;;;;;;;;;;;;;;;9.60;49.04;101409.77;108373;1253;72453;-67
2023/03/19 08:13:37;;;;;;;;;;;;;;;9.62;48.85;101409.38;108402;1253;72929;-67
2023/03/19 08:16:12;;;;;;;;;;;;;;;9.65;48.88;101409.73;108339;1253;60846;-66
2023/03/19 08:18:42;;;;;;;;;;;;;;;9.80;48.91;101408.22;108390;1253;59588;-66
2023/03/19 08:21:11;;;;;;;;;;;;;;;10.00;48.57;101407.77;108413;1253;74513;-67
2023/03/19 08:23:39;;;;;;;;;;;;;;;10.16;48.26;101403.71;108423;1252;73584;-66
2023/03/19 08:26:07;;;;;;;;;;;;;;;10.26;47.75;101405.17;108314;1252;72958;-67
2023/03/19 08:28:39;;;;;;;;;;;;;;;10.29;47.54;101403.96;108364;1253;60575;-67
2023/03/19 08:31:11;;;;;;;;;;;;;;;10.36;47.96;101405.83;108396;1253;60215;-69
2023/03/19 08:33:40;;;;;;;;;;;;;;;10.49;47.92;101406.70;108407;1254;74767;-67
2023/03/19 08:36:10;;;;;;;;;;;;;;;10.60;47.70;101402.69;108239;1254;72979;-68
2023/03/19 08:38:39;;;;;;;;;;;;;;;10.54;46.45;101403.86;108429;1256;72096;-67
2023/03/19 08:41:09;;;;;;;;;;;;;;;10.48;47.06;101401.77;108368;1253;60395;-65
2023/03/19 08:43:38;;;;;;;;;;;;;;;10.53;46.77;101400.95;108416;1252;60428;-66
2023/03/19 08:46:08;;;;;;;;;;;;;;;10.47;46.55;101400.39;108387;1254;74224;-66
2023/03/19 08:48:37;;;;;;;;;;;;;;;10.42;46.77;101395.82;108389;1254;72968;-66
2023/03/19 08:51:11;;;;;;;;;;;;;;;10.49;46.58;101392.55;108354;1254;72032;-67
2023/03/19 08:53:39;;;;;;;;;;;;;;;10.57;46.68;101386.71;108356;1253;60428;-67
2023/03/19 08:56:10;;;;;;;;;;;;;;;10.70;46.67;101387.41;108349;1253;60309;-67
2023/03/19 08:58:41;;;;;;;;;;;;;;;10.85;46.27;101385.13;108365;1252;73411;-66
2023/03/19 09:01:14;;;;;;;;;;;;;;;10.92;46.17;101380.02;108387;1256;71911;-66
2023/03/19 09:03:47;;;;;;;;;;;;;;;11.08;46.26;101378.16;108360;1254;72599;-66
2023/03/19 09:06:25;;;;;;;;;;;;;;;11.22;45.84;101372.01;108395;1254;60269;-66
2023/03/19 09:09:05;;;;;;;;;;;;;;;11.19;45.24;101376.17;108393;1254;60709;-67
2023/03/19 09:11:38;;;;;;;;;;;;;;;11.15;45.38;101374.96;108345;1254;72887;-66
2023/03/19 09:14:15;;;;;;;;;;;;;;;11.20;45.16;101370.09;108388;1253;73763;-67
2023/03/19 09:16:51;;;;;;;;;;;;;;;11.23;45.03;101365.34;108368;1253;73840;-66
2023/03/19 09:19:22;;;;;;;;;;;;;;;11.36;45.06;101363.25;100535;1252;10197738;-66
2023/03/19 09:21:56;;;;;;;;;;;;;;;11.52;44.89;101361.54;108371;1253;74910;-67
2023/03/19 09:24:26;;;;;;;;;;;;;;;11.66;44.46;101357.53;108363;1253;71779;-66
2023/03/19 09:26:58;;;;;;;;;;;;;;;11.79;43.89;101351.83;108375;1252;70856;-67
2023/03/19 09:29:27;;;;;;;;;;;;;;;11.85;43.99;101350.33;108304;1254;61237;-66
2023/03/19 09:32:13;;;;;;;;;;;;;;;12.02;44.02;101351.77;108377;1254;60389;-66
2023/03/19 09:35:00;;;;;;;;;;;;;;;12.30;43.55;101350.30;108400;1256;74845;-67
2023/03/19 09:37:31;;;;;;;;;;;;;;;12.52;42.90;101343.71;108260;1252;72102;-65
2023/03/19 09:40:00;;;;;;;;;;;;;;;12.72;42.28;101344.03;108328;1252;72481;-67
2023/03/19 09:42:37;;;;;;;;;;;;;;;12.82;41.49;101340.65;108351;1252;60593;-67
2023/03/19 09:45:13;;;;;;;;;;;;;;;12.84;40.75;101337.83;108387;1252;60313;-67
2023/03/19 09:47:42;;;;;;;;;;;;;;;12.81;41.16;101339.11;108345;1254;73208;-67
2023/03/19 09:50:15;;;;;;;;;;;;;;;12.89;41.17;101338.52;108398;1254;73199;-68
2023/03/19 09:52:49;;;;;;;;;;;;;;;12.97;40.95;101334.10;108342;1254;71601;-66
2023/03/19 09:55:20;;;;;;;;;;;;;;;13.06;40.46;101334.19;108342;1254;60379;-68
2023/03/19 09:57:49;;;;;;;;;;;;;;;13.02;40.00;101334.80;108399;1254;61146;-66
2023/03/19 10:00:21;;;;;;;;;;;;;;;12.93;40.03;101328.80;108345;1252;73670;-67
2023/03/19 10:02:57;;;;;;;;;;;;;;;12.87;40.32;101323.70;108307;1254;72904;-67
2023/03/19 10:05:26;;;;;;;;;;;;;;;12.84;40.09;101321.54;108263;1254;72892;-68
2023/03/19 10:08:09;;;;;;;;;;;;;;;12.87;40.28;101320.86;108292;1254;60319;-66
2023/03/19 10:10:41;;;;;;;;;;;;;;;12.97;40.12;101314.26;108374;1252;60310;-68
2023/03/19 10:13:17;;;;;;;;;;;;;;;13.10;39.67;101308.80;108428;1254;72217;-66
2023/03/19 10:15:46;;;;;;;;;;;;;;;13.02;39.11;101306.69;108422;1254;71959;-66
2023/03/19 10:18:16;;;;;;;;;;;;;;;12.74;39.45;101306.52;108247;1255;71647;-67
2023/03/19 10:20:47;;;;;;;;;;;;;;;12.54;40.28;101300.53;108424;1253;60296;-67
2023/03/19 10:23:24;;;;;;;;;;;;;;;12.46;40.04;101299.06;108384;1254;60450;-67
2023/03/19 10:25:54;;;;;;;;;;;;;;;12.32;39.80;101290.71;108417;1253;73963;-66
2023/03/19 10:28:27;;;;;;;;;;;;;;;12.22;40.23;101290.54;108294;1254;72524;-67
2023/03/19 10:31:14;;;;;;;;;;;;;;;12.25;40.44;101286.44;108291;1253;72897;-66
2023/03/19 10:34:11;;;;;;;;;;;;;;;12.35;40.33;101285.00;108334;1252;60288;-66
2023/03/19 10:36:42;;;;;;;;;;;;;;;12.31;41.14;101279.86;108292;1253;60954;-67
2023/03/19 10:39:13;;;;;;;;;;;;;;;12.22;41.64;101276.29;108436;1253;73665;-68
2023/03/19 10:42:05;;;;;;;;;;;;;;;12.10;41.78;101271.32;108294;1252;71943;-68
2023/03/19 10:44:34;;;;;;;;;;;;;;;11.97;41.50;101267.14;108300;1256;73938;-66
2023/03/19 10:47:12;;;;;;;;;;;;;;;11.88;41.53;101265.86;108375;1252;60572;-66
2023/03/19 10:49:41;;;;;;;;;;;;;;;11.88;41.79;101260.18;108374;1254;60425;-66
2023/03/19 10:52:17;;;;;;;;;;;;;;;11.87;41.92;101260.05;108295;1256;75385;-67
2023/03/19 10:54:46;;;;;;;;;;;;;;;11.79;42.14;101260.45;108311;1254;72144;-66
2023/03/19 10:57:21;;;;;;;;;;;;;;;11.84;42.21;101254.86;108237;1256;72865;-67
2023/03/19 10:59:50;;;;;;;;;;;;;;;11.82;41.71;101252.31;108304;1253;60292;-66
2023/03/19 11:02:22;;;;;;;;;;;;;;;11.70;41.92;101251.08;108339;1254;60367;-67
2023/03/19 11:05:10;;;;;;;;;;;;;;;11.62;42.21;101247.65;108285;1254;71771;-67
2023/03/19 11:07:39;;;;;;;;;;;;;;;11.50;42.67;101244.38;108168;1254;71282;-66
2023/03/19 11:10:12;;;;;;;;;;;;;;;11.47;42.77;101237.60;108374;1253;72110;-66
2023/03/19 11:12:46;;;;;;;;;;;;;;;11.46;42.57;101237.73;108097;1254;60395;-67
2023/03/19 11:15:17;;;;;;;;;;;;;;;11.42;42.67;101237.52;108453;1254;60872;-67
2023/03/19 11:17:49;;;;;;;;;;;;;;;11.41;42.68;101239.54;108476;1254;73811;-67
2023/03/19 11:20:17;;;;;;;;;;;;;;;11.38;42.61;101236.39;108238;1254;72089;-67
2023/03/19 11:22:46;;;;;;;;;;;;;;;11.34;43.18;101232.64;108297;1254;72878;-68
2023/03/19 11:25:18;;;;;;;;;;;;;;;11.40;43.23;101228.04;108086;1254;60402;-67
2023/03/19 11:27:56;;;;;;;;;;;;;;;11.49;42.87;101221.52;108265;1254;60834;-66
2023/03/19 11:30:35;;;;;;;;;;;;;;;11.62;42.74;101225.33;108398;1254;73930;-68
2023/03/19 11:33:04;;;;;;;;;;;;;;;11.80;42.46;101222.09;108295;1254;72810;-66
2023/03/19 11:35:36;;;;;;;;;;;;;;;11.91;41.10;101217.02;108423;1254;73494;-67
2023/03/19 11:38:05;;;;;;;;;;;;;;;11.95;41.07;101213.15;108387;1252;61406;-67
2023/03/19 11:40:45;;;;;;;;;;;;;;;12.00;40.77;101211.70;108371;1252;60566;-67
2023/03/19 11:43:29;;;;;;;;;;;;;;;12.02;40.83;101208.77;108329;1252;74815;-67
2023/03/19 11:46:18;;;;;;;;;;;;;;;12.02;40.51;101204.23;108351;1254;73342;-66
2023/03/19 11:49:05;;;;;;;;;;;;;;;12.03;40.34;101204.77;108390;1252;72451;-67
2023/03/19 11:51:36;;;;;;;;;;;;;;;12.08;40.67;101202.64;108347;1254;61073;-68
2023/03/19 11:54:05;;;;;;;;;;;;;;;12.19;40.71;101196.71;108360;1252;60493;-67
2023/03/19 11:56:52;;;;;;;;;;;;;;;12.23;39.83;101194.88;108345;1253;72103;-66
2023/03/19 11:59:24;;;;;;;;;;;;;;;12.11;39.84;101197.20;108396;1252;73025;-68
2023/03/19 12:01:56;;;;;;;;;;;;;;;12.06;40.10;101198.65;108396;1253;71981;-67
2023/03/19 12:04:30;;;;;;;;;;;;;;;12.05;39.94;101193.08;108408;1252;61590;-67
2023/03/19 12:07:17;;;;;;;;;;;;;;;12.04;39.55;101190.16;108403;1254;60421;-68
2023/03/19 12:10:00;;;;;;;;;;;;;;;12.01;39.69;101186.27;108375;1254;74109;-69
2023/03/19 12:12:38;;;;;;;;;;;;;;;12.03;39.63;101182.12;108233;1254;73912;-70
2023/03/19 12:15:09;;;;;;;;;;;;;;;12.00;39.47;101182.35;108410;1254;72284;-68
2023/03/19 12:17:44;;;;;;;;;;;;;;;12.01;39.74;101178.57;108386;1254;60577;-68
2023/03/19 12:20:24;;;;;;;;;;;;;;;12.08;39.79;101176.70;108389;1254;60424;-67
2023/03/19 12:22:59;;;;;;;;;;;;;;;12.16;39.96;101170.85;108469;1252;74932;-68
2023/03/19 12:25:33;;;;;;;;;;;;;;;12.24;39.89;101161.50;108453;1254;72774;-67
2023/03/19 12:28:07;;;;;;;;;;;;;;;12.33;39.80;101156.45;108256;1254;72314;-67
2023/03/19 12:30:40;;;;;;;;;;;;;;;12.43;39.69;101152.85;108356;1252;59307;-66
2023/03/19 12:33:29;;;;;;;;;;;;;;;12.42;39.14;101151.71;108385;1253;61095;-67
2023/03/19 12:35:57;;;;;;;;;;;;;;;12.42;39.73;101148.18;108460;1252;73837;-67
2023/03/19 12:38:25;;;;;;;;;;;;;;;12.47;39.63;101147.58;108406;1254;73658;-67
2023/03/19 12:41:11;;;;;;;;;;;;;;;12.47;39.58;101146.45;108374;1252;73572;-67
2023/03/19 12:44:00;;;;;;;;;;;;;;;12.46;39.72;101142.52;108366;1254;60277;-68
2023/03/19 12:46:33;;;;;;;;;;;;;;;12.52;39.52;101139.31;108294;1253;60335;-66
2023/03/19 12:49:01;;;;;;;;;;;;;;;12.47;39.43;101136.81;108383;1253;73417;-67
2023/03/19 12:51:35;;;;;;;;;;;;;;;12.38;39.56;101130.95;108378;1254;72937;-66
2023/03/19 12:54:09;;;;;;;;;;;;;;;12.29;39.69;101132.90;108207;1254;73951;-68
2023/03/19 12:56:49;;;;;;;;;;;;;;;12.28;40.12;101133.41;108359;1253;60306;-67
2023/03/19 12:59:19;;;;;;;;;;;;;;;12.39;40.26;101132.56;108345;1254;60799;-68